Terminal Aerodrome Forecast
Issued by NWS

Home | Current Version | Previous Version | Graphics & Text | Print | Product List | Glossary On
Versions: 1 2 3 4 5 6 7 8 9 10 11 12 13 14 15 16 17 18 19 20 21 22
364
FTUS43 KLOT 282052 AAA
TAFDPA
TAF AMD
KDPA 282052Z 2821/2918 02012KT P6SM VCSH SCT025 BKN050
     FM291400 03016G25KT P6SM BKN025=

USA.gov is the U.S. government's official web portal to all federal, state and local government web resources and services.